createdAt,value
2023-01-04T00:02:47.951Z,101644.41
2023-01-04T00:07:50.258Z,101611.13
2023-01-04T00:12:52.672Z,101613.53
2023-01-04T00:17:54.794Z,101612.00
2023-01-04T00:22:57.026Z,101607.22
2023-01-04T00:27:59.171Z,101637.56
2023-01-04T00:33:01.359Z,101600.28
2023-01-04T00:38:06.343Z,101632.13
2023-01-04T00:43:08.487Z,101614.38
2023-01-04T00:48:10.652Z,101609.50
2023-01-04T00:53:14.006Z,101637.84
2023-01-04T00:58:16.139Z,101623.53
2023-01-04T01:03:18.436Z,101604.63
2023-01-04T01:08:26.478Z,101621.19
2023-01-04T01:13:28.695Z,101615.78
2023-01-04T01:18:31.298Z,101636.19
2023-01-04T01:23:33.505Z,101639.59
2023-01-04T01:28:37.722Z,101649.03
2023-01-04T01:33:41.743Z,101640.78
2023-01-04T01:38:44.710Z,101628.63
2023-01-04T01:44:00.452Z,101632.72
2023-01-04T01:49:28.809Z,101635.72
2023-01-04T01:54:37.422Z,101629.59
2023-01-04T01:59:43.138Z,101632.09
2023-01-04T02:04:48.957Z,101622.97
2023-01-04T02:09:51.949Z,101607.72
2023-01-04T02:14:54.481Z,101586.41
2023-01-04T02:20:18.126Z,101618.09
2023-01-04T02:25:38.564Z,101614.78
2023-01-04T02:30:59.745Z,101615.28
2023-01-04T02:36:14.816Z,101607.34
2023-01-04T02:41:28.462Z,101596.63
2023-01-04T02:46:36.247Z,101582.66
2023-01-04T02:51:39.497Z,101593.72
2023-01-04T02:57:05.622Z,101602.34
2023-01-04T03:02:32.581Z,101623.31
2023-01-04T03:07:53.659Z,101625.34
2023-01-04T03:13:06.389Z,101588.53
2023-01-04T03:18:17.868Z,101627.34
2023-01-04T03:23:42.896Z,101587.78
2023-01-04T03:29:04.613Z,101614.31
2023-01-04T03:34:28.085Z,101619.19
2023-01-04T03:40:02.365Z,101604.91
2023-01-04T03:45:42.379Z,101589.44
2023-01-04T03:50:57.600Z,101611.06
2023-01-04T03:56:01.096Z,101622.63
2023-01-04T04:01:05.590Z,101609.69
2023-01-04T04:06:28.356Z,101609.44
2023-01-04T04:11:31.611Z,101596.56
2023-01-04T04:16:33.843Z,101617.31
2023-01-04T04:21:36.139Z,101628.88
2023-01-04T04:26:38.307Z,101627.66
2023-01-04T04:31:41.106Z,101619.97
2023-01-04T04:36:43.379Z,101627.53
2023-01-04T04:41:45.540Z,101617.19
2023-01-04T04:46:49.339Z,101623.94
2023-01-04T04:51:51.513Z,101637.72
2023-01-04T04:56:53.736Z,101627.91
2023-01-04T05:02:01.905Z,101606.38
2023-01-04T05:07:08.909Z,101653.97
2023-01-04T05:12:32.949Z,101627.38
2023-01-04T05:17:37.595Z,101667.38
2023-01-04T05:22:39.807Z,101647.88
2023-01-04T05:27:42.000Z,101627.19
2023-01-04T05:32:44.250Z,101630.94
2023-01-04T05:37:46.743Z,101654.81
2023-01-04T05:42:49.645Z,101676.09
2023-01-04T05:47:53.385Z,101679.03
2023-01-04T05:52:55.544Z,101671.06
2023-01-04T05:57:57.688Z,101657.13
2023-01-04T06:03:00.216Z,101661.41
2023-01-04T06:08:02.507Z,101686.78
2023-01-04T06:13:04.752Z,101640.59
2023-01-04T06:18:12.952Z,101666.03
2023-01-04T06:23:15.708Z,101657.28
2023-01-04T06:28:17.899Z,101695.56
2023-01-04T06:33:20.063Z,101692.31
2023-01-04T06:38:25.351Z,101702.81
2023-01-04T06:43:27.618Z,101697.56
2023-01-04T06:48:33.229Z,101709.00
2023-01-04T06:53:35.475Z,101692.69
2023-01-04T06:58:38.091Z,101718.41
2023-01-04T07:03:40.312Z,101666.34
2023-01-04T07:08:42.532Z,101716.06
2023-01-04T07:13:44.796Z,101718.94
2023-01-04T07:18:46.963Z,101694.16
2023-01-04T07:23:49.130Z,101704.88
2023-01-04T07:29:09.657Z,101701.69
2023-01-04T07:34:11.955Z,101733.41
2023-01-04T07:39:16.599Z,101723.88
2023-01-04T07:44:18.886Z,101729.19
2023-01-04T07:49:21.375Z,101720.34
2023-01-04T07:54:28.565Z,101726.75
2023-01-04T07:59:30.763Z,101729.53
2023-01-04T08:04:35.359Z,101742.09
2023-01-04T08:09:37.668Z,101761.84
2023-01-04T08:14:39.855Z,101736.50
2023-01-04T08:19:42.164Z,101725.66
2023-01-04T08:24:44.403Z,101745.84
2023-01-04T08:29:50.355Z,101752.00
2023-01-04T08:34:53.860Z,101746.75
2023-01-04T08:39:59.041Z,101759.34
2023-01-04T08:45:02.099Z,101729.41
2023-01-04T08:50:10.251Z,101727.78
2023-01-04T08:55:20.008Z,101726.94
2023-01-04T09:00:25.271Z,101703.72
2023-01-04T09:05:29.251Z,101743.94
2023-01-04T09:10:31.472Z,101714.13
2023-01-04T09:15:34.497Z,101726.69
2023-01-04T09:20:38.524Z,101727.25
2023-01-04T09:25:40.827Z,101669.69
2023-01-04T09:30:43.136Z,101623.09
2023-01-04T09:35:45.443Z,101674.34
2023-01-04T09:40:53.321Z,101678.16
2023-01-04T09:46:07.442Z,101696.41
2023-01-04T09:51:18.385Z,101646.91
2023-01-04T09:56:38.193Z,101643.56
2023-01-04T10:01:47.092Z,101676.16
2023-01-04T10:06:50.539Z,101663.50
2023-01-04T10:12:22.538Z,101655.38
2023-01-04T10:19:37.070Z,101595.91
2023-01-04T10:24:01.575Z,101673.47
2023-01-04T10:29:27.411Z,101599.88
2023-01-04T10:34:38.151Z,101615.59
2023-01-04T10:39:41.444Z,101619.34
2023-01-04T10:45:01.937Z,101633.44
2023-01-04T10:50:19.482Z,101498.59
2023-01-04T10:55:34.703Z,101539.22
2023-01-04T11:00:50.943Z,101618.47
2023-01-04T11:06:23.563Z,101613.13
2023-01-04T11:17:16.745Z,101605.28
2023-01-04T11:22:43.833Z,101597.00
2023-01-04T11:28:27.605Z,101562.69
2023-01-04T11:39:08.809Z,101542.09
2023-01-04T11:44:22.458Z,101417.13
2023-01-04T11:49:25.626Z,101527.47
2023-01-04T11:54:28.094Z,101538.69
2023-01-04T11:59:30.827Z,101555.19
2023-01-04T12:04:35.529Z,101396.25
2023-01-04T12:09:38.034Z,101508.78
2023-01-04T12:14:48.196Z,101516.22
2023-01-04T12:19:54.094Z,101507.84
2023-01-04T12:25:07.019Z,101468.91
2023-01-04T12:30:35.078Z,101465.75
2023-01-04T12:36:08.393Z,101522.44
2023-01-04T12:41:10.648Z,101501.69
2023-01-04T12:46:49.420Z,101531.69
2023-01-04T12:57:40.505Z,101502.91
2023-01-04T13:03:11.604Z,101426.53
2023-01-04T13:08:18.820Z,101499.31
2023-01-04T13:14:00.764Z,101507.34
2023-01-04T13:19:18.479Z,101532.09
2023-01-04T13:24:32.512Z,101512.53
2023-01-04T13:29:37.230Z,101460.31
2023-01-04T13:35:17.515Z,101524.63
2023-01-04T13:40:33.940Z,101534.72
2023-01-04T13:46:03.804Z,101518.06
2023-01-04T13:51:30.705Z,101485.03
2023-01-04T13:56:38.092Z,101481.00
2023-01-04T14:01:52.798Z,101518.06
2023-01-04T14:07:01.564Z,101465.63
2023-01-04T14:12:16.388Z,101546.34
2023-01-04T14:17:48.623Z,101541.00
2023-01-04T14:22:55.624Z,101544.72
2023-01-04T14:28:22.461Z,101541.91
2023-01-04T14:33:36.647Z,101547.13
2023-01-04T14:38:46.269Z,101541.75
2023-01-04T14:44:01.716Z,101475.97
2023-01-04T14:49:04.036Z,101510.16
2023-01-04T14:54:07.382Z,101520.34
2023-01-04T14:59:12.608Z,101510.78
2023-01-04T15:04:15.012Z,101454.56
2023-01-04T15:09:28.728Z,101453.28
2023-01-04T15:14:31.109Z,101498.63
2023-01-04T15:19:38.328Z,101452.03
2023-01-04T15:24:40.908Z,101481.25
2023-01-04T15:29:43.283Z,101486.66
2023-01-04T15:34:50.183Z,101568.97
2023-01-04T15:39:55.366Z,101568.63
2023-01-04T15:45:04.623Z,101546.53
2023-01-04T15:50:09.174Z,101557.09
2023-01-04T15:55:16.640Z,101525.59
2023-01-04T16:00:21.406Z,101484.75
2023-01-04T16:05:23.577Z,101533.34
2023-01-04T16:10:27.141Z,101534.25
2023-01-04T16:15:29.367Z,101538.91
2023-01-04T16:20:33.387Z,101566.31
2023-01-04T16:31:25.405Z,101549.06
2023-01-04T16:36:28.033Z,101574.44
2023-01-04T16:41:30.669Z,101580.41
2023-01-04T16:46:37.715Z,101584.25
2023-01-04T16:51:42.120Z,101522.97
2023-01-04T16:56:45.824Z,101597.06
2023-01-04T17:01:55.886Z,101560.25
2023-01-04T17:07:01.198Z,101546.84
2023-01-04T17:17:25.710Z,101560.09
2023-01-04T17:22:32.468Z,101606.69
2023-01-04T17:27:36.755Z,101582.59
2023-01-04T17:32:39.081Z,101591.75
2023-01-04T17:37:41.269Z,101595.06
2023-01-04T17:42:45.333Z,101537.31
2023-01-04T17:47:47.798Z,101573.00
2023-01-04T17:52:51.212Z,101617.19
2023-01-04T17:57:53.318Z,101590.56
2023-01-04T18:02:55.509Z,101604.88
2023-01-04T18:07:57.859Z,101617.34
2023-01-04T18:12:59.961Z,101613.78
2023-01-04T18:18:02.085Z,101627.31
2023-01-04T18:23:04.303Z,101627.50
2023-01-04T18:28:06.570Z,101611.63
2023-01-04T18:33:08.955Z,101623.16
2023-01-04T18:38:11.092Z,101625.41
2023-01-04T18:43:13.489Z,101621.34
2023-01-04T18:48:15.912Z,101630.81
2023-01-04T18:53:18.047Z,101633.78
2023-01-04T18:58:20.211Z,101611.13
2023-01-04T19:03:22.404Z,101617.47
2023-01-04T19:08:25.162Z,101633.19
2023-01-04T19:13:27.821Z,101608.06
2023-01-04T19:18:30.186Z,101618.75
2023-01-04T19:23:32.761Z,101632.84
2023-01-04T19:28:35.145Z,101623.69
2023-01-04T19:33:38.129Z,101636.06
2023-01-04T19:38:40.487Z,101629.75
2023-01-04T19:43:43.347Z,101647.91
2023-01-04T19:48:46.685Z,101646.34
2023-01-04T19:53:48.782Z,101647.59
2023-01-04T19:58:51.221Z,101656.03
2023-01-04T20:03:53.721Z,101644.50
2023-01-04T20:08:55.898Z,101651.13
2023-01-04T20:13:58.143Z,101649.41
2023-01-04T20:19:00.528Z,101642.81
2023-01-04T20:24:02.765Z,101636.06
2023-01-04T20:29:05.846Z,101644.06
2023-01-04T20:34:08.510Z,101635.09
2023-01-04T20:39:10.860Z,101656.19
2023-01-04T20:44:13.225Z,101650.38
2023-01-04T20:49:15.709Z,101625.47
2023-01-04T20:54:17.998Z,101665.28
2023-01-04T20:59:20.218Z,101672.88
2023-01-04T21:04:22.615Z,101647.41
2023-01-04T21:09:24.821Z,101661.59
2023-01-04T21:14:28.934Z,101673.84
2023-01-04T21:19:31.133Z,101662.81
2023-01-04T21:24:34.779Z,101680.09
2023-01-04T21:29:37.691Z,101668.28
2023-01-04T21:34:39.949Z,101656.91
2023-01-04T21:39:42.165Z,101663.28
2023-01-04T21:44:44.295Z,101660.63
2023-01-04T21:49:46.479Z,101674.56
2023-01-04T21:54:49.165Z,101669.41
2023-01-04T21:59:51.357Z,101664.63
2023-01-04T22:04:55.752Z,101662.88
2023-01-04T22:09:57.965Z,101643.28
2023-01-04T22:15:00.117Z,101660.66
2023-01-04T22:20:06.693Z,101676.41
2023-01-04T22:25:09.464Z,101683.72
2023-01-04T22:30:12.067Z,101660.53
2023-01-04T22:35:14.340Z,101628.72
2023-01-04T22:40:16.643Z,101671.16
2023-01-04T22:45:18.859Z,101658.25
2023-01-04T22:50:20.964Z,101655.88
2023-01-04T22:55:23.791Z,101657.88
2023-01-04T23:00:25.921Z,101658.94
2023-01-04T23:05:29.082Z,101666.34
2023-01-04T23:10:33.425Z,101648.47
2023-01-04T23:15:38.025Z,101632.91
2023-01-04T23:20:41.150Z,101632.31
2023-01-04T23:25:43.182Z,101636.41
2023-01-04T23:30:45.372Z,101638.13
2023-01-04T23:35:47.449Z,101646.88
2023-01-04T23:40:49.576Z,101621.38
2023-01-04T23:45:56.008Z,101637.56
2023-01-04T23:50:58.232Z,101638.09
2023-01-04T23:56:03.644Z,101642.22
